Apple Valley, Utah
Current Conditions -  °F | °C
As of 4:35 PM on Sunday 21 Dec 2014 (Local Time) from KAZC Reporting Station
Clear Clear  
Wind Chill: 11°   Ceiling: Unl
Heat Index: 11°   Visibility: 10mi
Dew Point:   Wind: 6mph
Humidity: 60%   Direction: 170°S
Pressure: 30.09"   Gusts: NA
Location:  37.2274°N, 113.139°W
Report Text: KAZC 212335Z AUTO 17005KT 10SM CLR 11/03 A3009 RMK AO2 T01060032
Loading
Personal Weather Stations






























Interactive Weather Map New forecast layout! Learn more

10-Day Weather Forecast

Advertisements
Track Severe Weather on mobile